sensor_id;sensor_type;location;lat;lon;timestamp;pressure;altitude;pressure_sealevel;temperature;humidity
74433;BME280;62865;53.146;23.172;2023-05-14T15:56:36;1025.8;;;27.1;23.4
74433;BME280;62865;53.146;23.172;2023-05-14T16:01:24;1025.8;;;27.1;23.1
74433;BME280;62865;53.146;23.172;2023-05-14T16:06:36;1025.7;;;27.2;23.4
74433;BME280;62865;53.146;23.172;2023-05-14T16:12:12;1025.7;;;26.9;23.6
74433;BME280;62865;53.146;23.172;2023-05-14T16:16:44;1025.7;;;26.5;24
74433;BME280;62865;53.146;23.172;2023-05-14T16:21:38;1025.7;;;26.1;24.7
74433;BME280;62865;53.146;23.172;2023-05-14T16:27:14;1025.7;;;25.8;24.9
74433;BME280;62865;53.146;23.172;2023-05-14T16:31:44;1025.7;;;25.5;25.2
74433;BME280;62865;53.146;23.172;2023-05-14T16:36:36;1025.7;;;25.3;25.6
74433;BME280;62865;53.146;23.172;2023-05-14T16:42:04;1025.7;;;25;25.8
74433;BME280;62865;53.146;23.172;2023-05-14T16:47:14;1025.7;;;24.7;26.3
74433;BME280;62865;53.146;23.172;2023-05-14T16:51:24;1025.6;;;24.6;26.6
74433;BME280;62865;53.146;23.172;2023-05-14T17:16:44;1025.5;;;24.1;27.7
74433;BME280;62865;53.146;23.172;2023-05-14T17:22:12;1025.5;;;24;27.9
74433;BME280;62865;53.146;23.172;2023-05-14T17:26:48;1025.6;;;24;28.1
74433;BME280;62865;53.146;23.172;2023-05-14T17:31:38;1025.6;;;23.9;28.4
74433;BME280;62865;53.146;23.172;2023-05-14T17:36:38;1025.5;;;23.9;28.5
74433;BME280;62865;53.146;23.172;2023-05-14T17:42:04;1025.5;;;23.8;28.8
74433;BME280;62865;53.146;23.172;2023-05-14T17:46:37;1025.5;;;23.6;29.1
74433;BME280;62865;53.146;23.172;2023-05-14T17:51:50;1025.6;;;23.4;29.5
74433;BME280;62865;53.146;23.172;2023-05-14T17:57:00;1025.6;;;23.2;29.8
74433;BME280;62865;53.146;23.172;2023-05-14T18:01:36;1025.6;;;22.9;30.2
74433;BME280;62865;53.146;23.172;2023-05-14T18:07:14;1025.6;;;22.7;30.6
74433;BME280;62865;53.146;23.172;2023-05-14T18:12:00;1025.6;;;22.4;31
74433;BME280;62865;53.146;23.172;2023-05-14T18:16:24;1025.6;;;22.2;31.5
74433;BME280;62865;53.146;23.172;2023-05-14T18:21:58;1025.7;;;21.9;31.9
74433;BME280;62865;53.146;23.172;2023-05-14T18:26:42;1025.7;;;21.6;32.5
74433;BME280;62865;53.146;23.172;2023-05-14T18:31:50;1025.7;;;21.4;33
74433;BME280;62865;53.146;23.172;2023-05-14T18:37:04;1025.7;;;21.3;33.3
74433;BME280;62865;53.146;23.172;2023-05-14T18:42:14;1025.7;;;21.1;33.6
74433;BME280;62865;53.146;23.172;2023-05-14T18:46:38;1025.8;;;20.9;34.2
74433;BME280;62865;53.146;23.172;2023-05-14T18:52:14;1025.8;;;20.8;34.5
74433;BME280;62865;53.146;23.172;2023-05-14T19:02:00;1025.6;;;20.3;35.4
74433;BME280;62865;53.146;23.172;2023-05-14T19:06:34;1025.6;;;20.1;35.8
74433;BME280;62865;53.146;23.172;2023-05-14T19:11:36;1025.6;;;20;35.9
74433;BME280;62865;53.146;23.172;2023-05-14T19:17:04;1025.6;;;19.9;36.3
74433;BME280;62865;53.146;23.172;2023-05-14T19:21:58;1025.6;;;19.8;36.6
74433;BME280;62865;53.146;23.172;2023-05-14T19:26:36;1025.5;;;19.6;37
74433;BME280;62865;53.146;23.172;2023-05-14T19:32:12;1025.5;;;19.5;37.2
74433;BME280;62865;53.146;23.172;2023-05-14T19:37:12;1025.6;;;19.4;37.5
74433;BME280;62865;53.146;23.172;2023-05-14T19:41:24;1025.6;;;19.3;37.7
74433;BME280;62865;53.146;23.172;2023-05-14T19:46:50;1025.5;;;19.3;37.9
74433;BME280;62865;53.146;23.172;2023-05-14T19:51:56;1025.5;;;19.2;38.1
74433;BME280;62865;53.146;23.172;2023-05-14T19:56:36;1025.5;;;19.1;38.2
74433;BME280;62865;53.146;23.172;2023-05-14T20:01:48;1025.5;;;18.9;38.5
74433;BME280;62865;53.146;23.172;2023-05-14T20:07:00;1025.4;;;18.8;38.8
74433;BME280;62865;53.146;23.172;2023-05-14T20:11:36;1025.4;;;18.7;39.1
74433;BME280;62865;53.146;23.172;2023-05-14T20:17:14;1025.4;;;18.6;39.3
74433;BME280;62865;53.146;23.172;2023-05-14T20:21:44;1025.3;;;18.6;39.5
74433;BME280;62865;53.146;23.172;2023-05-14T20:27:14;1025.3;;;18.5;39.7
74433;BME280;62865;53.146;23.172;2023-05-14T20:31:26;1025.3;;;18.4;40
74433;BME280;62865;53.146;23.172;2023-05-14T20:37:14;1025.3;;;18.3;40.3
74433;BME280;62865;53.146;23.172;2023-05-14T20:41:48;1025.3;;;18.2;40.6
74433;BME280;62865;53.146;23.172;2023-05-14T20:47:02;1025.3;;;18;40.8
74433;BME280;62865;53.146;23.172;2023-05-14T20:51:24;1025.3;;;17.9;41.1
74433;BME280;62865;53.146;23.172;2023-05-14T20:56:58;1025.3;;;17.9;41.3
74433;BME280;62865;53.146;23.172;2023-05-14T21:01:34;1025.3;;;17.8;41.5
74433;BME280;62865;53.146;23.172;2023-05-14T21:06:36;1025.3;;;17.8;41.6
74433;BME280;62865;53.146;23.172;2023-05-14T21:12:12;1025.3;;;17.7;41.8
74433;BME280;62865;53.146;23.172;2023-05-14T21:16:24;1025.3;;;17.7;42
74433;BME280;62865;53.146;23.172;2023-05-14T21:21:38;1025.3;;;17.6;42.1
74433;BME280;62865;53.146;23.172;2023-05-14T21:27:12;1025.2;;;17.5;42.4
74433;BME280;62865;53.146;23.172;2023-05-14T21:31:44;1025.2;;;17.4;42.7
74433;BME280;62865;53.146;23.172;2023-05-14T21:36:44;1025.2;;;17.3;43.1
74433;BME280;62865;53.146;23.172;2023-05-14T21:42:04;1025.2;;;17.2;43.2
74433;BME280;62865;53.146;23.172;2023-05-14T21:47:14;1025.2;;;17.2;43.5
74433;BME280;62865;53.146;23.172;2023-05-14T21:51:32;1025.2;;;17.1;44
74433;BME280;62865;53.146;23.172;2023-05-14T21:56:36;1025.1;;;16.9;44.5
74433;BME280;62865;53.146;23.172;2023-05-14T22:02:12;1025.1;;;16.8;44.7
74433;BME280;62865;53.146;23.172;2023-05-14T22:07:14;1025.1;;;16.7;44.9
74433;BME280;62865;53.146;23.172;2023-05-14T22:11:46;1025.1;;;16.6;45
74433;BME280;62865;53.146;23.172;2023-05-14T22:16:36;1025;;;16.6;45.1
74433;BME280;62865;53.146;23.172;2023-05-14T22:22:02;1025;;;16.6;45.2
74433;BME280;62865;53.146;23.172;2023-05-14T22:26:48;1024.9;;;16.5;45.2
74433;BME280;62865;53.146;23.172;2023-05-14T22:31:36;1024.8;;;16.6;45
74433;BME280;62865;53.146;23.172;2023-05-14T22:37:14;1024.8;;;16.6;45
74433;BME280;62865;53.146;23.172;2023-05-14T22:42:12;1024.8;;;16.6;45.1
74433;BME280;62865;53.146;23.172;2023-05-14T22:46:24;1024.7;;;16.6;45.1
74433;BME280;62865;53.146;23.172;2023-05-14T22:51:50;1024.7;;;16.6;45.3
74433;BME280;62865;53.146;23.172;2023-05-14T22:57:12;1024.6;;;16.5;45.4
74433;BME280;62865;53.146;23.172;2023-05-14T23:01:24;1024.6;;;16.5;45.4
74433;BME280;62865;53.146;23.172;2023-05-14T23:06:24;1024.6;;;16.5;45.5
74433;BME280;62865;53.146;23.172;2023-05-14T23:12:14;1024.6;;;16.4;45.5
74433;BME280;62865;53.146;23.172;2023-05-14T23:16:36;1024.5;;;16.4;45.6
74433;BME280;62865;53.146;23.172;2023-05-14T23:22:14;1024.5;;;16.4;45.7
74433;BME280;62865;53.146;23.172;2023-05-14T23:26:42;1024.5;;;16.3;45.9
74433;BME280;62865;53.146;23.172;2023-05-14T23:32:14;1024.4;;;16.2;46.1
74433;BME280;62865;53.146;23.172;2023-05-14T23:36:58;1024.4;;;16.2;46.2
74433;BME280;62865;53.146;23.172;2023-05-14T23:42:14;1024.4;;;16.1;46.3
74433;BME280;62865;53.146;23.172;2023-05-14T23:46:50;1024.3;;;16.1;46.3
74433;BME280;62865;53.146;23.172;2023-05-14T23:52:05;1024.3;;;16;46.4
74433;BME280;62865;53.146;23.172;2023-05-14T23:56:24;1024.2;;;16;46.5
